Time;durP1;ratioP1;P1;durP2;ratioP2;P2;SDS_P1;SDS_P2;PMS_P1;PMS_P2;Temp;Humidity;BMP_temperature;BMP_pressure;BME280_temperature;BME280_humidity;BME280_pressure;Samples;Min_cycle;Max_cycle;Signal;HPM_P1;HPM_P2
2022/02/23 00:02:01;;;;;;;16.13;4.00;;;;;;;;;;5055499;28;20252;-80
2022/02/23 00:04:28;;;;;;;18.40;4.03;;;;;;;;;;5054140;28;20231;-80
2022/02/23 00:06:55;;;;;;;16.83;4.37;;;;;;;;;;5054868;28;20683;-80
2022/02/23 00:09:23;;;;;;;17.07;4.43;;;;;;;;;;5054306;28;20768;-80
2022/02/23 00:11:50;;;;;;;15.47;5.03;;;;;;;;;;5054459;28;20293;-80
2022/02/23 00:14:17;;;;;;;18.80;5.17;;;;;;;;;;5054771;28;20231;-80
2022/02/23 00:16:46;;;;;;;20.03;4.93;;;;;;;;;;5054490;28;20710;-80
2022/02/23 00:19:13;;;;;;;20.43;6.00;;;;;;;;;;5054629;28;20290;-80
2022/02/23 00:21:40;;;;;;;20.27;6.47;;;;;;;;;;5054506;28;20234;-80
2022/02/23 00:24:07;;;;;;;18.37;5.77;;;;;;;;;;5054210;28;20694;-80
2022/02/23 00:26:35;;;;;;;17.97;5.73;;;;;;;;;;5054956;28;20237;-80
2022/02/23 00:29:02;;;;;;;14.47;5.30;;;;;;;;;;5053713;28;20310;-80
2022/02/23 00:31:30;;;;;;;16.07;5.20;;;;;;;;;;5054794;28;20566;-81
2022/02/23 00:33:58;;;;;;;15.73;4.33;;;;;;;;;;5053262;28;20207;-80
2022/02/23 00:36:25;;;;;;;17.40;4.27;;;;;;;;;;5054522;28;20234;-80
2022/02/23 00:38:53;;;;;;;19.63;3.63;;;;;;;;;;5054224;28;20287;-80
2022/02/23 00:41:20;;;;;;;16.10;3.63;;;;;;;;;;5055007;28;20238;-80
2022/02/23 00:43:47;;;;;;;15.30;3.70;;;;;;;;;;5053961;28;20306;-81
2022/02/23 00:46:15;;;;;;;13.97;4.27;;;;;;;;;;5054507;28;20236;-80
2022/02/23 00:48:42;;;;;;;14.57;3.77;;;;;;;;;;5054401;28;20229;-81
2022/02/23 00:51:11;;;;;;;16.20;4.30;;;;;;;;;;5054464;28;20281;-80
2022/02/23 00:53:38;;;;;;;17.37;3.80;;;;;;;;;;5053529;28;20676;-80
2022/02/23 00:56:05;;;;;;;16.83;3.70;;;;;;;;;;5053892;28;20288;-80
2022/02/23 00:58:33;;;;;;;16.17;3.90;;;;;;;;;;5053900;28;20281;-80
2022/02/23 01:01:00;;;;;;;17.13;4.27;;;;;;;;;;5053609;28;20278;-80
2022/02/23 01:03:27;;;;;;;19.57;4.03;;;;;;;;;;5053605;28;20285;-81
2022/02/23 01:05:54;;;;;;;10.43;3.53;;;;;;;;;;5052909;28;20230;-80
2022/02/23 01:08:23;;;;;;;12.80;3.67;;;;;;;;;;5053498;28;20294;-80
2022/02/23 01:10:50;;;;;;;17.00;3.93;;;;;;;;;;5053491;28;20217;-80
2022/02/23 01:13:18;;;;;;;13.57;4.37;;;;;;;;;;5054124;28;20285;-80
2022/02/23 01:15:45;;;;;;;13.97;4.30;;;;;;;;;;5053764;28;20573;-80
2022/02/23 01:18:13;;;;;;;17.57;4.20;;;;;;;;;;5053413;28;20259;-80
2022/02/23 01:20:40;;;;;;;12.90;4.43;;;;;;;;;;5053887;28;20241;-80
2022/02/23 01:23:07;;;;;;;13.00;4.10;;;;;;;;;;5053702;28;20205;-81
2022/02/23 01:25:36;;;;;;;17.67;4.10;;;;;;;;;;5052703;28;20260;-80
2022/02/23 01:28:05;;;;;;;15.17;4.20;;;;;;;;;;5053704;28;20214;-81
2022/02/23 01:30:33;;;;;;;19.07;5.13;;;;;;;;;;5053548;28;20883;-81
2022/02/23 01:33:00;;;;;;;17.23;5.73;;;;;;;;;;5053145;28;21002;-81
2022/02/23 01:35:28;;;;;;;14.13;4.63;;;;;;;;;;5053379;28;20709;-80
2022/02/23 01:37:55;;;;;;;18.13;4.80;;;;;;;;;;5052296;28;20755;-80
2022/02/23 01:40:23;;;;;;;17.47;5.40;;;;;;;;;;5053609;28;20237;-80
2022/02/23 01:42:53;;;;;;;19.83;6.03;;;;;;;;;;5052651;28;20257;-81
2022/02/23 01:45:20;;;;;;;17.73;5.73;;;;;;;;;;5052019;28;20316;-80
2022/02/23 01:47:48;;;;;;;14.13;5.23;;;;;;;;;;5052787;28;20259;-80
2022/02/23 01:50:16;;;;;;;17.10;5.30;;;;;;;;;;5053356;28;20643;-79
2022/02/23 01:52:43;;;;;;;15.77;5.70;;;;;;;;;;5052921;28;20207;-79
2022/02/23 01:55:11;;;;;;;15.47;5.77;;;;;;;;;;5053147;28;20285;-79
2022/02/23 01:57:38;;;;;;;18.43;5.80;;;;;;;;;;5053069;28;20671;-79
2022/02/23 02:00:08;;;;;;;17.37;5.77;;;;;;;;;;5053183;28;20239;-79
2022/02/23 02:02:36;;;;;;;19.03;6.10;;;;;;;;;;5052700;28;20279;-79
2022/02/23 02:05:04;;;;;;;11.73;4.90;;;;;;;;;;5052660;28;20242;-79
2022/02/23 02:07:31;;;;;;;22.07;5.77;;;;;;;;;;5053028;28;20246;-79
2022/02/23 02:09:58;;;;;;;13.87;5.90;;;;;;;;;;5053006;28;20298;-79
2022/02/23 02:12:26;;;;;;;22.20;7.60;;;;;;;;;;5052645;28;20226;-79
2022/02/23 02:14:53;;;;;;;20.50;7.73;;;;;;;;;;5052630;28;20231;-79
2022/02/23 02:17:21;;;;;;;18.67;7.63;;;;;;;;;;5052264;28;20196;-79
2022/02/23 02:19:49;;;;;;;22.10;7.07;;;;;;;;;;5046502;28;20295;-79
2022/02/23 02:22:17;;;;;;;22.60;6.83;;;;;;;;;;5052326;28;20286;-79
2022/02/23 02:24:44;;;;;;;16.70;6.80;;;;;;;;;;5053187;28;20200;-79
2022/02/23 02:27:12;;;;;;;20.13;7.17;;;;;;;;;;5052230;28;20238;-79
2022/02/23 02:29:40;;;;;;;16.50;6.93;;;;;;;;;;5052241;28;20299;-79
2022/02/23 02:32:08;;;;;;;16.93;6.80;;;;;;;;;;5052368;28;20242;-79
2022/02/23 02:34:35;;;;;;;27.37;7.63;;;;;;;;;;5052502;28;20560;-79
2022/02/23 02:37:03;;;;;;;20.93;7.40;;;;;;;;;;5051263;28;20730;-79
2022/02/23 02:39:31;;;;;;;18.83;7.70;;;;;;;;;;5047689;28;20378;-79
2022/02/23 02:41:59;;;;;;;20.57;7.57;;;;;;;;;;5052148;28;20306;-79
2022/02/23 02:44:26;;;;;;;22.37;7.70;;;;;;;;;;5052220;28;20238;-79
2022/02/23 02:46:53;;;;;;;23.53;7.67;;;;;;;;;;5051933;28;20302;-79
2022/02/23 02:49:20;;;;;;;19.23;7.80;;;;;;;;;;5052227;28;20223;-79
2022/02/23 02:51:48;;;;;;;17.60;7.70;;;;;;;;;;5051963;28;20285;-79
2022/02/23 02:54:15;;;;;;;20.90;7.67;;;;;;;;;;5052212;28;20200;-80
2022/02/23 02:56:44;;;;;;;18.33;7.30;;;;;;;;;;5050604;28;20687;-79
2022/02/23 02:59:12;;;;;;;22.57;7.17;;;;;;;;;;5052099;28;20238;-79
2022/02/23 03:01:39;;;;;;;16.67;7.07;;;;;;;;;;5052329;28;20286;-79
2022/02/23 03:04:07;;;;;;;21.47;6.93;;;;;;;;;;5051140;28;20667;-79
2022/02/23 03:06:34;;;;;;;15.73;7.10;;;;;;;;;;5051862;28;20257;-79
2022/02/23 03:09:02;;;;;;;18.50;7.03;;;;;;;;;;5051860;28;20278;-79
2022/02/23 03:11:29;;;;;;;18.00;7.33;;;;;;;;;;5052277;28;20200;-79
2022/02/23 03:13:58;;;;;;;21.67;6.73;;;;;;;;;;5051108;28;20254;-80
2022/02/23 03:16:25;;;;;;;16.03;6.73;;;;;;;;;;5051941;28;20203;-79
2022/02/23 03:18:52;;;;;;;13.70;6.80;;;;;;;;;;5051107;28;20208;-79
2022/02/23 03:21:20;;;;;;;18.33;6.97;;;;;;;;;;5051861;28;20287;-79
2022/02/23 03:23:47;;;;;;;18.77;6.37;;;;;;;;;;5051555;28;20759;-79
2022/02/23 03:26:15;;;;;;;19.17;7.47;;;;;;;;;;5051774;28;20196;-80
2022/02/23 03:28:42;;;;;;;16.27;6.73;;;;;;;;;;5052122;28;20227;-80
2022/02/23 03:31:11;;;;;;;14.27;6.40;;;;;;;;;;5051535;28;20239;-79
2022/02/23 03:33:42;;;;;;;20.33;6.10;;;;;;;;;;5051056;28;20245;-80
2022/02/23 03:36:10;;;;;;;16.60;6.13;;;;;;;;;;5051597;28;20195;-80
2022/02/23 03:38:37;;;;;;;14.70;5.77;;;;;;;;;;5051511;28;20282;-80
2022/02/23 03:41:04;;;;;;;16.00;6.60;;;;;;;;;;5051018;28;20204;-80
2022/02/23 03:43:32;;;;;;;16.10;5.77;;;;;;;;;;5051571;28;20215;-80
2022/02/23 03:45:59;;;;;;;13.67;5.37;;;;;;;;;;5051780;28;20239;-80
2022/02/23 03:48:28;;;;;;;15.77;5.23;;;;;;;;;;5051603;28;20318;-80
2022/02/23 03:50:55;;;;;;;14.53;5.03;;;;;;;;;;5051346;28;20573;-79
2022/02/23 03:53:23;;;;;;;13.43;5.13;;;;;;;;;;5051321;28;20591;-79
2022/02/23 03:55:50;;;;;;;16.03;5.37;;;;;;;;;;5050413;28;20226;-79
2022/02/23 03:58:17;;;;;;;16.40;5.63;;;;;;;;;;5050266;28;20231;-79
2022/02/23 04:00:44;;;;;;;18.70;5.47;;;;;;;;;;5051125;28;20202;-80
2022/02/23 04:03:12;;;;;;;19.77;6.13;;;;;;;;;;5049993;28;20824;-79
2022/02/23 04:05:40;;;;;;;18.27;6.30;;;;;;;;;;5051150;28;20256;-80
2022/02/23 04:08:08;;;;;;;14.00;5.80;;;;;;;;;;5053541;28;20242;-80
2022/02/23 04:10:35;;;;;;;15.17;5.27;;;;;;;;;;5055040;28;20237;-80
2022/02/23 04:13:02;;;;;;;13.33;5.87;;;;;;;;;;5055139;28;20205;-80
2022/02/23 04:15:30;;;;;;;10.37;5.40;;;;;;;;;;5054794;28;20227;-80
2022/02/23 04:17:57;;;;;;;14.83;5.87;;;;;;;;;;5055224;28;20214;-80
2022/02/23 04:20:24;;;;;;;15.30;5.40;;;;;;;;;;5055213;28;20246;-80
2022/02/23 04:22:52;;;;;;;11.43;4.90;;;;;;;;;;5054906;28;20284;-80
2022/02/23 04:25:20;;;;;;;13.23;4.73;;;;;;;;;;5054539;28;20811;-80
2022/02/23 04:27:47;;;;;;;10.57;4.43;;;;;;;;;;5055054;28;20207;-80
2022/02/23 04:30:14;;;;;;;17.73;5.50;;;;;;;;;;5054084;28;20341;-80
2022/02/23 04:32:41;;;;;;;14.57;4.50;;;;;;;;;;5053998;28;20690;-79
2022/02/23 04:35:09;;;;;;;18.23;4.77;;;;;;;;;;5054882;28;20247;-80
2022/02/23 04:37:36;;;;;;;15.50;4.63;;;;;;;;;;5054550;28;20245;-80
2022/02/23 04:40:05;;;;;;;10.03;4.10;;;;;;;;;;5053684;28;20281;-79
2022/02/23 04:42:32;;;;;;;13.33;4.47;;;;;;;;;;5054955;28;20633;-79
2022/02/23 04:45:01;;;;;;;14.03;4.80;;;;;;;;;;5054073;28;20224;-79
2022/02/23 04:47:29;;;;;;;10.13;4.27;;;;;;;;;;5054376;28;20211;-80
2022/02/23 04:49:56;;;;;;;11.30;3.97;;;;;;;;;;5053407;28;20233;-79
2022/02/23 04:52:25;;;;;;;13.57;4.70;;;;;;;;;;5054570;28;20295;-79
2022/02/23 04:54:53;;;;;;;11.47;4.00;;;;;;;;;;5053878;28;20198;-79
2022/02/23 04:57:22;;;;;;;10.37;4.87;;;;;;;;;;5054157;28;20238;-79
2022/02/23 04:59:49;;;;;;;10.33;4.83;;;;;;;;;;5053514;28;20805;-80
2022/02/23 05:02:16;;;;;;;13.17;4.40;;;;;;;;;;5054199;28;20612;-80
2022/02/23 05:04:43;;;;;;;11.37;4.00;;;;;;;;;;5054454;28;20202;-80
2022/02/23 05:07:11;;;;;;;12.27;3.93;;;;;;;;;;5054408;28;20247;-80
2022/02/23 05:09:38;;;;;;;11.67;3.60;;;;;;;;;;5052739;28;20705;-80
2022/02/23 05:12:07;;;;;;;11.70;3.93;;;;;;;;;;5053890;28;20243;-79
2022/02/23 05:14:35;;;;;;;12.73;3.67;;;;;;;;;;5053462;28;20297;-80
2022/02/23 05:17:03;;;;;;;17.37;3.57;;;;;;;;;;5053717;28;20293;-80
2022/02/23 05:19:31;;;;;;;18.70;4.00;;;;;;;;;;5052480;28;20638;-79
2022/02/23 05:21:59;;;;;;;12.67;3.70;;;;;;;;;;5054065;28;20214;-79
2022/02/23 05:24:28;;;;;;;12.27;4.30;;;;;;;;;;5053342;28;20209;-79
2022/02/23 05:26:55;;;;;;;12.17;4.13;;;;;;;;;;5053982;28;20686;-80
2022/02/23 05:29:23;;;;;;;15.57;4.70;;;;;;;;;;5053209;28;20307;-80
2022/02/23 05:31:51;;;;;;;9.90;3.83;;;;;;;;;;5053999;28;20231;-79
2022/02/23 05:34:18;;;;;;;15.70;4.33;;;;;;;;;;5053238;28;20275;-80
2022/02/23 05:36:46;;;;;;;15.13;4.50;;;;;;;;;;5053566;28;20241;-79
2022/02/23 05:39:13;;;;;;;13.43;4.47;;;;;;;;;;5053229;28;20227;-80
2022/02/23 05:41:41;;;;;;;9.87;3.83;;;;;;;;;;5053308;28;20719;-80
2022/02/23 05:44:08;;;;;;;11.77;3.97;;;;;;;;;;5053394;28;20287;-80
2022/02/23 05:46:35;;;;;;;11.53;3.53;;;;;;;;;;5052718;28;20313;-80
2022/02/23 05:49:04;;;;;;;9.27;3.93;;;;;;;;;;5053216;28;20217;-80
2022/02/23 05:51:32;;;;;;;12.73;3.37;;;;;;;;;;5052933;28;20254;-80
2022/02/23 05:54:00;;;;;;;14.70;3.90;;;;;;;;;;5053082;28;20205;-80
2022/02/23 05:56:27;;;;;;;10.00;3.20;;;;;;;;;;5053548;28;20233;-80
2022/02/23 05:58:54;;;;;;;11.97;3.77;;;;;;;;;;5052505;28;20584;-80
2022/02/23 06:01:21;;;;;;;12.13;3.20;;;;;;;;;;5052393;28;20199;-80
2022/02/23 06:03:49;;;;;;;13.07;3.23;;;;;;;;;;5053163;28;20283;-80
2022/02/23 06:06:17;;;;;;;12.70;3.17;;;;;;;;;;5053236;28;20237;-79
2022/02/23 06:08:45;;;;;;;11.50;2.93;;;;;;;;;;5053291;28;20295;-81
2022/02/23 06:11:13;;;;;;;14.67;3.03;;;;;;;;;;5052736;28;20700;-81
2022/02/23 06:13:41;;;;;;;10.03;3.30;;;;;;;;;;5052438;28;20215;-81
2022/02/23 06:16:08;;;;;;;11.77;3.10;;;;;;;;;;5052515;28;20204;-79
2022/02/23 06:18:35;;;;;;;10.43;3.40;;;;;;;;;;5052865;28;20248;-80
2022/02/23 06:21:03;;;;;;;11.27;3.57;;;;;;;;;;5052398;28;20672;-80
2022/02/23 06:23:32;;;;;;;10.63;3.43;;;;;;;;;;5052558;28;20203;-80
2022/02/23 06:26:00;;;;;;;7.43;3.37;;;;;;;;;;5051471;28;20679;-80
2022/02/23 06:28:27;;;;;;;11.77;3.63;;;;;;;;;;5051674;28;20685;-81
2022/02/23 06:30:55;;;;;;;11.63;3.30;;;;;;;;;;5052571;28;20259;-80
2022/02/23 06:33:23;;;;;;;15.30;3.47;;;;;;;;;;5052171;28;20242;-80
2022/02/23 06:35:51;;;;;;;10.57;3.20;;;;;;;;;;5052839;28;20267;-80
2022/02/23 06:38:18;;;;;;;11.53;3.30;;;;;;;;;;5052274;28;20199;-80
2022/02/23 06:40:47;;;;;;;12.03;3.10;;;;;;;;;;5052755;28;20223;-81
2022/02/23 06:43:15;;;;;;;9.77;3.30;;;;;;;;;;5060301;28;20267;-82
2022/02/23 06:45:43;;;;;;;11.10;3.33;;;;;;;;;;5047580;28;20789;-81
2022/02/23 06:48:10;;;;;;;9.00;3.47;;;;;;;;;;5040799;28;20322;-82
2022/02/23 06:50:37;;;;;;;18.13;4.30;;;;;;;;;;5042436;28;20228;-80
2022/02/23 06:53:04;;;;;;;12.13;4.17;;;;;;;;;;5045338;28;20288;-82
2022/02/23 06:55:31;;;;;;;13.27;4.30;;;;;;;;;;5047808;28;20686;-81
2022/02/23 06:58:00;;;;;;;12.60;4.63;;;;;;;;;;5041522;28;20295;-81
2022/02/23 07:00:27;;;;;;;10.80;4.33;;;;;;;;;;5045791;28;20203;-81
2022/02/23 07:02:55;;;;;;;9.97;4.37;;;;;;;;;;5047273;28;20213;-82
2022/02/23 07:05:22;;;;;;;10.67;4.83;;;;;;;;;;5048988;28;20301;-81
2022/02/23 07:07:50;;;;;;;22.47;8.10;;;;;;;;;;5046277;28;20218;-82
2022/02/23 07:10:24;;;;;;;21.70;10.93;;;;;;;;;;5046535;28;20404;-81
2022/02/23 07:12:51;;;;;;;20.80;8.40;;;;;;;;;;5049691;28;20785;-81
2022/02/23 07:15:21;;;;;;;15.03;6.63;;;;;;;;;;5043907;28;20245;-80
2022/02/23 07:17:48;;;;;;;18.50;8.83;;;;;;;;;;5049081;28;20752;-80
2022/02/23 07:20:16;;;;;;;19.43;9.57;;;;;;;;;;5050010;28;20290;-81
2022/02/23 07:22:43;;;;;;;24.93;10.97;;;;;;;;;;5049504;28;20217;-81
2022/02/23 07:25:11;;;;;;;21.80;10.80;;;;;;;;;;5049685;28;20287;-81
2022/02/23 07:27:38;;;;;;;18.03;7.07;;;;;;;;;;5049876;28;20783;-81
2022/02/23 07:30:07;;;;;;;14.47;5.20;;;;;;;;;;5049314;28;20309;-81
2022/02/23 07:32:36;;;;;;;10.80;4.53;;;;;;;;;;5050238;28;20284;-82
2022/02/23 07:35:04;;;;;;;11.77;4.33;;;;;;;;;;5050019;28;20231;-81
2022/02/23 07:37:33;;;;;;;9.63;3.83;;;;;;;;;;5050430;28;20224;-81
2022/02/23 07:40:04;;;;;;;10.70;3.97;;;;;;;;;;5046794;28;20632;-81
2022/02/23 07:42:32;;;;;;;13.20;4.43;;;;;;;;;;5051228;28;20236;-81
2022/02/23 07:44:59;;;;;;;8.43;4.07;;;;;;;;;;5052331;28;20241;-79
2022/02/23 07:47:28;;;;;;;12.97;4.67;;;;;;;;;;5053378;28;20207;-79
2022/02/23 07:49:57;;;;;;;11.63;4.30;;;;;;;;;;5051082;28;20219;-80
2022/02/23 07:52:24;;;;;;;14.10;4.53;;;;;;;;;;5053640;28;20229;-79
2022/02/23 07:54:51;;;;;;;11.57;4.83;;;;;;;;;;5053698;28;20218;-80
2022/02/23 07:57:18;;;;;;;12.93;6.40;;;;;;;;;;5053645;28;20293;-79
2022/02/23 07:59:46;;;;;;;14.80;5.07;;;;;;;;;;5050162;28;20204;-79
2022/02/23 08:02:14;;;;;;;36.93;13.27;;;;;;;;;;5050939;28;20207;-79
2022/02/23 08:04:42;;;;;;;32.80;9.13;;;;;;;;;;5053687;28;20301;-79
2022/02/23 08:07:10;;;;;;;31.53;7.50;;;;;;;;;;5053451;28;20278;-79
2022/02/23 08:09:37;;;;;;;28.53;10.23;;;;;;;;;;5053661;28;20699;-79
2022/02/23 08:12:05;;;;;;;25.57;7.17;;;;;;;;;;5053802;28;20289;-79
2022/02/23 08:14:32;;;;;;;25.97;6.67;;;;;;;;;;5053770;28;20230;-79
2022/02/23 08:19:44;;;;;;;20.80;6.03;;;;;;;;;;5049219;28;20273;-80
2022/02/23 08:22:14;;;;;;;21.43;6.30;;;;;;;;;;5053174;28;20209;-80
2022/02/23 08:24:44;;;;;;;14.70;5.70;;;;;;;;;;5045077;28;20200;-79
2022/02/23 08:27:12;;;;;;;26.67;10.00;;;;;;;;;;5050498;28;20212;-80
2022/02/23 08:29:40;;;;;;;38.43;12.80;;;;;;;;;;5052080;28;20296;-79
2022/02/23 08:32:09;;;;;;;35.73;13.43;;;;;;;;;;5053254;28;20226;-79
2022/02/23 08:34:36;;;;;;;125.07;64.33;;;;;;;;;;5053271;28;20588;-79
2022/02/23 08:37:03;;;;;;;74.63;45.23;;;;;;;;;;5053197;28;20223;-80
2022/02/23 08:39:33;;;;;;;44.63;24.03;;;;;;;;;;5053185;28;20245;-79
2022/02/23 08:42:00;;;;;;;71.67;45.53;;;;;;;;;;5052395;28;20302;-79
2022/02/23 08:44:27;;;;;;;32.40;21.20;;;;;;;;;;5048650;28;20201;-79
2022/02/23 08:46:55;;;;;;;26.70;11.57;;;;;;;;;;5053260;28;20262;-79
2022/02/23 08:49:23;;;;;;;26.53;10.43;;;;;;;;;;5053235;28;20296;-79
2022/02/23 08:51:50;;;;;;;35.67;19.33;;;;;;;;;;5051307;28;20266;-79
2022/02/23 08:54:18;;;;;;;19.77;8.60;;;;;;;;;;5051291;28;20682;-79
2022/02/23 08:56:47;;;;;;;48.10;32.17;;;;;;;;;;5052271;28;20284;-79
2022/02/23 08:59:14;;;;;;;29.80;10.83;;;;;;;;;;5052648;28;20293;-79
2022/02/23 09:01:41;;;;;;;29.70;16.13;;;;;;;;;;5053139;28;20209;-79
2022/02/23 09:04:09;;;;;;;47.30;26.50;;;;;;;;;;5051684;28;20333;-79
2022/02/23 09:06:37;;;;;;;33.00;17.70;;;;;;;;;;5053001;28;20279;-79
2022/02/23 09:09:05;;;;;;;23.53;10.00;;;;;;;;;;5053353;28;20199;-79
2022/02/23 09:11:32;;;;;;;26.30;9.40;;;;;;;;;;5053196;28;20262;-79
2022/02/23 09:14:01;;;;;;;24.93;10.17;;;;;;;;;;5053135;28;20206;-79
2022/02/23 09:16:28;;;;;;;28.20;11.67;;;;;;;;;;5053251;28;20295;-79
2022/02/23 09:18:55;;;;;;;24.00;9.50;;;;;;;;;;5052806;28;20242;-79
2022/02/23 09:21:22;;;;;;;33.57;8.77;;;;;;;;;;5051679;28;20713;-79
2022/02/23 09:23:49;;;;;;;28.10;8.67;;;;;;;;;;5052972;28;20668;-79
2022/02/23 09:26:19;;;;;;;31.80;11.50;;;;;;;;;;5048894;28;20200;-79
2022/02/23 09:28:46;;;;;;;26.47;8.00;;;;;;;;;;5053072;28;20612;-79
2022/02/23 09:31:15;;;;;;;31.43;7.00;;;;;;;;;;5052329;28;20326;-79
2022/02/23 09:33:42;;;;;;;24.43;5.90;;;;;;;;;;5052563;28;20239;-80
2022/02/23 09:36:10;;;;;;;26.20;5.83;;;;;;;;;;5051965;28;20196;-79
2022/02/23 09:38:37;;;;;;;22.17;5.50;;;;;;;;;;5051937;28;20762;-80
2022/02/23 09:41:09;;;;;;;22.87;5.93;;;;;;;;;;5052111;28;20663;-80
2022/02/23 09:43:36;;;;;;;28.70;6.43;;;;;;;;;;5051057;28;20223;-79
2022/02/23 09:46:06;;;;;;;23.00;6.47;;;;;;;;;;5051771;28;20251;-79
2022/02/23 09:48:35;;;;;;;22.20;5.77;;;;;;;;;;5052129;28;20286;-80
2022/02/23 09:51:04;;;;;;;26.10;5.53;;;;;;;;;;5052212;28;20219;-79
2022/02/23 09:53:32;;;;;;;25.13;6.30;;;;;;;;;;5052792;28;20234;-80
2022/02/23 09:56:00;;;;;;;22.47;5.43;;;;;;;;;;5051945;28;20282;-79
2022/02/23 09:58:28;;;;;;;22.30;5.50;;;;;;;;;;5049923;28;20203;-79
2022/02/23 10:00:55;;;;;;;20.10;5.03;;;;;;;;;;5050057;28;20195;-80
2022/02/23 10:03:24;;;;;;;23.37;5.67;;;;;;;;;;5038294;28;20207;-80
2022/02/23 10:05:53;;;;;;;21.40;5.33;;;;;;;;;;5050964;28;20615;-81
2022/02/23 10:08:20;;;;;;;24.83;4.80;;;;;;;;;;5051709;28;20291;-81
2022/02/23 10:10:50;;;;;;;17.10;4.47;;;;;;;;;;5052266;28;20222;-81
2022/02/23 10:13:19;;;;;;;17.53;4.33;;;;;;;;;;5051053;28;20689;-81
2022/02/23 10:15:49;;;;;;;15.80;4.17;;;;;;;;;;5052620;28;20196;-81
2022/02/23 10:18:19;;;;;;;17.23;4.30;;;;;;;;;;5050636;28;20211;-80
2022/02/23 10:20:46;;;;;;;17.33;4.23;;;;;;;;;;5050899;28;20203;-81
2022/02/23 10:23:18;;;;;;;15.47;4.43;;;;;;;;;;5051219;28;20265;-82
2022/02/23 10:25:48;;;;;;;13.93;4.03;;;;;;;;;;5050513;28;20192;-82
2022/02/23 10:28:18;;;;;;;13.60;3.97;;;;;;;;;;5051135;28;20242;-82
2022/02/23 10:30:46;;;;;;;20.23;4.67;;;;;;;;;;5051323;28;20215;-82
2022/02/23 10:33:14;;;;;;;14.10;3.33;;;;;;;;;;5050995;28;20203;-81
2022/02/23 10:35:50;;;;;;;10.20;2.93;;;;;;;;;;5052318;28;20242;-82
2022/02/23 10:38:21;;;;;;;14.13;3.90;;;;;;;;;;5049693;28;20253;-82
2022/02/23 10:40:48;;;;;;;9.83;3.20;;;;;;;;;;5051565;28;20202;-82
2022/02/23 10:43:22;;;;;;;11.77;3.33;;;;;;;;;;5051887;28;20247;-82
2022/02/23 10:45:51;;;;;;;10.70;3.57;;;;;;;;;;5042302;28;20227;-82
2022/02/23 10:48:30;;;;;;;13.23;4.10;;;;;;;;;;5049686;28;20574;-82
2022/02/23 10:50:57;;;;;;;13.77;4.20;;;;;;;;;;5050301;28;20219;-82
2022/02/23 10:53:27;;;;;;;13.50;4.03;;;;;;;;;;5050165;28;20207;-81
2022/02/23 10:55:55;;;;;;;13.17;3.47;;;;;;;;;;5044402;28;20294;-82
2022/02/23 10:58:25;;;;;;;12.10;2.93;;;;;;;;;;5052051;28;20441;-82
2022/02/23 11:00:55;;;;;;;13.00;3.07;;;;;;;;;;5050094;28;20223;-82
2022/02/23 11:03:22;;;;;;;11.40;2.70;;;;;;;;;;5049026;28;20289;-82
2022/02/23 11:05:50;;;;;;;7.40;2.47;;;;;;;;;;5049409;28;20203;-82
2022/02/23 11:08:17;;;;;;;7.77;2.70;;;;;;;;;;5050617;28;20200;-82
2022/02/23 11:10:48;;;;;;;11.43;3.13;;;;;;;;;;5049620;28;20254;-82
2022/02/23 11:13:16;;;;;;;9.23;2.40;;;;;;;;;;5050549;28;20220;-82
2022/02/23 11:15:44;;;;;;;13.93;3.00;;;;;;;;;;5048918;28;20666;-81
2022/02/23 11:18:15;;;;;;;11.17;2.57;;;;;;;;;;5043057;28;20294;-81
2022/02/23 11:20:43;;;;;;;14.07;3.03;;;;;;;;;;5046748;28;20246;-81
2022/02/23 11:23:16;;;;;;;10.93;3.00;;;;;;;;;;5049315;28;20235;-82
2022/02/23 11:25:44;;;;;;;10.50;2.87;;;;;;;;;;5046942;28;20242;-82
2022/02/23 11:28:17;;;;;;;15.33;3.33;;;;;;;;;;5050913;28;20625;-81
2022/02/23 11:30:45;;;;;;;12.10;3.30;;;;;;;;;;5051661;28;20306;-81
2022/02/23 11:33:12;;;;;;;11.03;2.93;;;;;;;;;;5050617;28;20291;-82
2022/02/23 11:35:40;;;;;;;13.30;3.40;;;;;;;;;;5050157;28;20231;-81
2022/02/23 11:38:07;;;;;;;15.07;3.73;;;;;;;;;;5049851;28;20249;-81
2022/02/23 11:40:48;;;;;;;14.13;3.87;;;;;;;;;;5050662;28;20199;-81
2022/02/23 11:43:25;;;;;;;17.23;4.37;;;;;;;;;;5050286;28;20714;-81
2022/02/23 11:45:56;;;;;;;14.83;4.60;;;;;;;;;;5047115;28;20322;-82
2022/02/23 11:48:23;;;;;;;20.27;4.63;;;;;;;;;;5050248;28;20206;-81
2022/02/23 11:51:04;;;;;;;16.33;4.37;;;;;;;;;;5050938;28;20298;-81
2022/02/23 11:53:41;;;;;;;12.73;4.70;;;;;;;;;;5050009;28;20280;-82
2022/02/23 11:56:12;;;;;;;16.77;5.00;;;;;;;;;;5042017;28;20288;-82
2022/02/23 11:58:50;;;;;;;20.53;4.83;;;;;;;;;;5048203;28;20246;-82
2022/02/23 12:01:19;;;;;;;13.93;3.50;;;;;;;;;;5050264;28;20192;-81
2022/02/23 12:04:01;;;;;;;12.70;4.37;;;;;;;;;;5050317;28;20204;-82
2022/02/23 12:06:29;;;;;;;14.17;4.10;;;;;;;;;;5049507;28;20306;-82
2022/02/23 12:08:56;;;;;;;16.80;4.27;;;;;;;;;;5050126;28;20257;-82
2022/02/23 12:11:42;;;;;;;14.80;4.13;;;;;;;;;;5050418;28;20316;-82
2022/02/23 12:14:10;;;;;;;16.10;3.73;;;;;;;;;;5049689;28;20199;-81
2022/02/23 12:16:51;;;;;;;16.00;3.37;;;;;;;;;;5050340;28;20581;-82
2022/02/23 12:19:19;;;;;;;8.40;2.20;;;;;;;;;;5036036;28;20228;-82
2022/02/23 12:21:47;;;;;;;12.13;2.87;;;;;;;;;;5050101;28;20247;-82
2022/02/23 12:24:15;;;;;;;8.80;2.50;;;;;;;;;;5049992;28;20231;-80
2022/02/23 12:26:43;;;;;;;8.27;1.93;;;;;;;;;;5050153;28;20289;-81
2022/02/23 12:29:13;;;;;;;11.90;2.63;;;;;;;;;;5050754;28;20286;-81
2022/02/23 12:31:44;;;;;;;11.03;2.73;;;;;;;;;;5041756;28;20254;-82
2022/02/23 12:34:13;;;;;;;14.97;3.50;;;;;;;;;;5049871;28;20299;-83
2022/02/23 12:36:42;;;;;;;8.00;2.23;;;;;;;;;;5052760;28;20273;-83
2022/02/23 12:39:11;;;;;;;8.77;2.30;;;;;;;;;;5052280;28;20286;-83
2022/02/23 12:41:38;;;;;;;11.23;2.27;;;;;;;;;;5047944;28;20227;-83
2022/02/23 12:44:07;;;;;;;5.73;1.93;;;;;;;;;;5051172;28;20216;-83
2022/02/23 12:46:36;;;;;;;8.93;2.13;;;;;;;;;;5047572;28;20243;-83
2022/02/23 12:49:04;;;;;;;9.03;2.37;;;;;;;;;;5052678;28;20314;-83
2022/02/23 12:51:32;;;;;;;11.63;2.57;;;;;;;;;;5052016;28;20371;-83
2022/02/23 12:54:03;;;;;;;9.13;2.27;;;;;;;;;;5051887;28;20242;-83
2022/02/23 12:56:31;;;;;;;10.07;2.20;;;;;;;;;;5049382;28;20683;-83
2022/02/23 12:58:59;;;;;;;9.87;2.50;;;;;;;;;;5052309;28;20220;-83
2022/02/23 13:01:27;;;;;;;8.53;2.70;;;;;;;;;;5053097;28;20227;-82
2022/02/23 13:03:58;;;;;;;10.90;2.70;;;;;;;;;;5051617;28;20687;-83
2022/02/23 13:06:29;;;;;;;9.23;2.10;;;;;;;;;;5048787;28;20202;-82
2022/02/23 13:09:00;;;;;;;9.63;2.60;;;;;;;;;;5051967;28;20243;-84
2022/02/23 13:11:29;;;;;;;10.20;2.20;;;;;;;;;;5052662;28;20721;-83
2022/02/23 13:13:56;;;;;;;9.43;2.00;;;;;;;;;;5052028;28;20208;-83
2022/02/23 13:16:27;;;;;;;8.10;2.00;;;;;;;;;;5052735;28;20227;-82
2022/02/23 13:19:04;;;;;;;5.97;1.97;;;;;;;;;;5052494;28;20235;-82
2022/02/23 13:21:41;;;;;;;8.17;1.87;;;;;;;;;;5052654;28;20574;-83
2022/02/23 13:24:09;;;;;;;11.57;1.93;;;;;;;;;;5052009;28;20208;-83
2022/02/23 13:26:38;;;;;;;8.60;1.70;;;;;;;;;;5052461;28;20207;-82
2022/02/23 13:29:08;;;;;;;5.97;1.40;;;;;;;;;;5052825;28;20254;-83
2022/02/23 13:31:37;;;;;;;9.90;2.27;;;;;;;;;;5051945;28;20235;-83
2022/02/23 13:34:29;;;;;;;8.40;2.30;;;;;;;;;;5048707;28;20206;-82
2022/02/23 13:36:59;;;;;;;7.50;1.60;;;;;;;;;;5040932;28;20196;-83
2022/02/23 13:39:27;;;;;;;5.67;1.67;;;;;;;;;;5051148;28;20234;-82
2022/02/23 13:41:56;;;;;;;7.63;1.90;;;;;;;;;;5051533;28;20290;-83
2022/02/23 13:44:24;;;;;;;7.40;1.97;;;;;;;;;;5043404;28;20227;-83
2022/02/23 13:46:53;;;;;;;7.00;1.90;;;;;;;;;;5051748;28;20685;-83
2022/02/23 13:49:20;;;;;;;4.80;1.63;;;;;;;;;;5052248;28;20210;-83
2022/02/23 13:51:47;;;;;;;6.07;1.73;;;;;;;;;;5052130;28;20707;-82
2022/02/23 13:54:19;;;;;;;6.87;1.90;;;;;;;;;;5052137;28;20881;-82
2022/02/23 13:56:46;;;;;;;8.73;2.03;;;;;;;;;;5051441;28;20299;-82
2022/02/23 13:59:16;;;;;;;9.83;1.70;;;;;;;;;;5051501;28;20282;-82
2022/02/23 14:02:02;;;;;;;8.90;2.20;;;;;;;;;;5050356;28;20192;-81
2022/02/23 14:04:36;;;;;;;11.57;2.70;;;;;;;;;;5050807;28;20702;-82
2022/02/23 14:07:04;;;;;;;7.20;2.50;;;;;;;;;;5049201;28;20692;-82
2022/02/23 14:09:35;;;;;;;6.70;2.30;;;;;;;;;;5051293;28;20200;-82
2022/02/23 14:12:03;;;;;;;6.53;1.97;;;;;;;;;;5052085;28;20219;-82
2022/02/23 14:14:37;;;;;;;6.30;1.70;;;;;;;;;;5052126;28;20228;-81
2022/02/23 14:17:13;;;;;;;5.80;2.87;;;;;;;;;;5051360;28;20226;-82
2022/02/23 14:19:42;;;;;;;7.33;2.27;;;;;;;;;;5051891;28;20204;-83
2022/02/23 14:22:09;;;;;;;8.20;2.00;;;;;;;;;;5050897;28;20207;-83
2022/02/23 14:24:39;;;;;;;8.30;2.13;;;;;;;;;;5050595;28;20195;-82
2022/02/23 14:27:09;;;;;;;8.00;2.33;;;;;;;;;;5050704;28;20223;-82
2022/02/23 14:29:37;;;;;;;7.60;2.03;;;;;;;;;;5051288;28;20207;-83
2022/02/23 14:32:17;;;;;;;4.13;1.60;;;;;;;;;;5051348;28;20240;-83
2022/02/23 14:34:49;;;;;;;6.37;2.00;;;;;;;;;;5045995;28;20269;-83
2022/02/23 14:37:17;;;;;;;6.33;2.37;;;;;;;;;;5051546;28;20279;-83
2022/02/23 14:39:46;;;;;;;8.53;2.40;;;;;;;;;;5049325;28;20295;-83
2022/02/23 14:42:13;;;;;;;8.47;1.83;;;;;;;;;;5050066;28;20783;-83